sensor_id;sensor_type;location;lat;lon;timestamp;pressure;altitude;pressure_sealevel;temperature;humidity
23253;BME280;11795;47.054;15.408;2023-08-31T00:01:57;96850;;;15.9;100.0
23253;BME280;11795;47.054;15.408;2023-08-31T00:03:59;96850;;;16.0;100.0
23253;BME280;11795;47.054;15.408;2023-08-31T00:05:57;96850;;;15.9;100.0
23253;BME280;11795;47.054;15.408;2023-08-31T00:07:57;96850;;;16.0;100.0
23253;BME280;11795;47.054;15.408;2023-08-31T00:09:58;96850;;;15.9;100.0
23253;BME280;11795;47.054;15.408;2023-08-31T00:11:57;96850;;;15.8;100.0
23253;BME280;11795;47.054;15.408;2023-08-31T00:13:57;96850;;;15.9;100.0
23253;BME280;11795;47.054;15.408;2023-08-31T00:15:57;96850;;;15.9;100.0
23253;BME280;11795;47.054;15.408;2023-08-31T00:17:58;96850;;;16.0;100.0
23253;BME280;11795;47.054;15.408;2023-08-31T00:19:57;96850;;;15.9;100.0
23253;BME280;11795;47.054;15.408;2023-08-31T00:21:58;96850;;;15.8;100.0
23253;BME280;11795;47.054;15.408;2023-08-31T00:23:57;96850;;;15.9;100.0
23253;BME280;11795;47.054;15.408;2023-08-31T00:25:57;96850;;;15.8;100.0
23253;BME280;11795;47.054;15.408;2023-08-31T00:27:57;96840;;;15.8;100.0
23253;BME280;11795;47.054;15.408;2023-08-31T00:29:58;96840;;;15.7;100.0
23253;BME280;11795;47.054;15.408;2023-08-31T00:31:57;96840;;;15.7;100.0
23253;BME280;11795;47.054;15.408;2023-08-31T00:33:57;96840;;;15.7;100.0
23253;BME280;11795;47.054;15.408;2023-08-31T00:35:58;96840;;;15.6;100.0
23253;BME280;11795;47.054;15.408;2023-08-31T00:37:58;96840;;;15.8;100.0
23253;BME280;11795;47.054;15.408;2023-08-31T00:39:57;96840;;;15.6;100.0
23253;BME280;11795;47.054;15.408;2023-08-31T00:41:57;96840;;;15.6;100.0
23253;BME280;11795;47.054;15.408;2023-08-31T00:43:57;96840;;;15.7;100.0
23253;BME280;11795;47.054;15.408;2023-08-31T00:45:58;96840;;;15.6;100.0
23253;BME280;11795;47.054;15.408;2023-08-31T00:47:57;96840;;;15.8;100.0
23253;BME280;11795;47.054;15.408;2023-08-31T00:49:58;96840;;;15.6;100.0
23253;BME280;11795;47.054;15.408;2023-08-31T00:51:57;96840;;;15.6;100.0
23253;BME280;11795;47.054;15.408;2023-08-31T00:53:59;96850;;;15.7;100.0
23253;BME280;11795;47.054;15.408;2023-08-31T00:55:57;96850;;;15.6;100.0
23253;BME280;11795;47.054;15.408;2023-08-31T00:57:58;96850;;;15.8;100.0
23253;BME280;11795;47.054;15.408;2023-08-31T00:59:57;96850;;;15.6;100.0
23253;BME280;11795;47.054;15.408;2023-08-31T01:02:02;96850;;;15.5;100.0
23253;BME280;11795;47.054;15.408;2023-08-31T01:04:03;96840;;;15.7;100.0
23253;BME280;11795;47.054;15.408;2023-08-31T01:06:02;96850;;;15.6;100.0
23253;BME280;11795;47.054;15.408;2023-08-31T01:08:05;96850;;;15.8;100.0
23253;BME280;11795;47.054;15.408;2023-08-31T01:10:04;96850;;;15.6;100.0
23253;BME280;11795;47.054;15.408;2023-08-31T01:12:02;96850;;;15.5;100.0
23253;BME280;11795;47.054;15.408;2023-08-31T01:14:00;96860;;;15.6;100.0
23253;BME280;11795;47.054;15.408;2023-08-31T01:16:00;96860;;;15.5;100.0
23253;BME280;11795;47.054;15.408;2023-08-31T01:17:59;96860;;;15.7;100.0
23253;BME280;11795;47.054;15.408;2023-08-31T01:19:59;96850;;;15.6;100.0
23253;BME280;11795;47.054;15.408;2023-08-31T01:22:00;96860;;;15.5;100.0
23253;BME280;11795;47.054;15.408;2023-08-31T01:23:57;96860;;;15.6;100.0
23253;BME280;11795;47.054;15.408;2023-08-31T01:25:57;96870;;;15.5;100.0
23253;BME280;11795;47.054;15.408;2023-08-31T01:27:58;96860;;;15.6;100.0
23253;BME280;11795;47.054;15.408;2023-08-31T01:29:57;96860;;;15.5;100.0
23253;BME280;11795;47.054;15.408;2023-08-31T01:31:57;96860;;;15.4;100.0
23253;BME280;11795;47.054;15.408;2023-08-31T01:33:57;96860;;;15.6;100.0
23253;BME280;11795;47.054;15.408;2023-08-31T01:35:59;96860;;;15.5;100.0
23253;BME280;11795;47.054;15.408;2023-08-31T01:37:59;96870;;;15.6;100.0
23253;BME280;11795;47.054;15.408;2023-08-31T01:40:02;96870;;;15.5;100.0
23253;BME280;11795;47.054;15.408;2023-08-31T01:42:01;96870;;;15.4;100.0
23253;BME280;11795;47.054;15.408;2023-08-31T01:43:58;96870;;;15.5;100.0
23253;BME280;11795;47.054;15.408;2023-08-31T01:45:58;96870;;;15.4;100.0
23253;BME280;11795;47.054;15.408;2023-08-31T01:47:57;96870;;;15.6;100.0
23253;BME280;11795;47.054;15.408;2023-08-31T01:49:57;96870;;;15.4;100.0
23253;BME280;11795;47.054;15.408;2023-08-31T01:51:57;96870;;;15.3;100.0
23253;BME280;11795;47.054;15.408;2023-08-31T01:53:58;96870;;;15.4;100.0
23253;BME280;11795;47.054;15.408;2023-08-31T01:55:57;96870;;;15.3;100.0
23253;BME280;11795;47.054;15.408;2023-08-31T01:57:57;96880;;;15.5;100.0
23253;BME280;11795;47.054;15.408;2023-08-31T01:59:57;96880;;;15.4;100.0
23253;BME280;11795;47.054;15.408;2023-08-31T02:01:58;96870;;;15.3;100.0
23253;BME280;11795;47.054;15.408;2023-08-31T02:03:57;96880;;;15.4;100.0
23253;BME280;11795;47.054;15.408;2023-08-31T02:05:57;96870;;;15.2;100.0
23253;BME280;11795;47.054;15.408;2023-08-31T02:07:57;96870;;;15.4;100.0
23253;BME280;11795;47.054;15.408;2023-08-31T02:09:57;96870;;;15.3;100.0
23253;BME280;11795;47.054;15.408;2023-08-31T02:11:57;96870;;;15.2;100.0
23253;BME280;11795;47.054;15.408;2023-08-31T02:13:57;96870;;;15.4;100.0
23253;BME280;11795;47.054;15.408;2023-08-31T02:15:57;96870;;;15.3;100.0
23253;BME280;11795;47.054;15.408;2023-08-31T02:17:57;96880;;;15.4;100.0
23253;BME280;11795;47.054;15.408;2023-08-31T02:19:58;96880;;;15.3;100.0
23253;BME280;11795;47.054;15.408;2023-08-31T02:21:57;96880;;;15.2;100.0
23253;BME280;11795;47.054;15.408;2023-08-31T02:23:57;96890;;;15.4;100.0
23253;BME280;11795;47.054;15.408;2023-08-31T02:25:57;96890;;;15.2;100.0
23253;BME280;11795;47.054;15.408;2023-08-31T02:27:57;96890;;;15.4;100.0
23253;BME280;11795;47.054;15.408;2023-08-31T02:29:57;96890;;;15.3;100.0
23253;BME280;11795;47.054;15.408;2023-08-31T02:31:57;96900;;;15.2;100.0
23253;BME280;11795;47.054;15.408;2023-08-31T02:33:57;96890;;;15.4;100.0
23253;BME280;11795;47.054;15.408;2023-08-31T02:35:58;96900;;;15.3;100.0
23253;BME280;11795;47.054;15.408;2023-08-31T02:37:58;96900;;;15.4;100.0
23253;BME280;11795;47.054;15.408;2023-08-31T02:39:57;96900;;;15.3;100.0
23253;BME280;11795;47.054;15.408;2023-08-31T02:41:57;96900;;;15.2;100.0
23253;BME280;11795;47.054;15.408;2023-08-31T02:43:57;96900;;;15.4;100.0
23253;BME280;11795;47.054;15.408;2023-08-31T02:45:59;96910;;;15.3;100.0
23253;BME280;11795;47.054;15.408;2023-08-31T02:47:57;96900;;;15.4;100.0
23253;BME280;11795;47.054;15.408;2023-08-31T02:49:57;96900;;;15.3;100.0
23253;BME280;11795;47.054;15.408;2023-08-31T02:51:57;96900;;;15.2;100.0
23253;BME280;11795;47.054;15.408;2023-08-31T02:53:57;96910;;;15.3;100.0
23253;BME280;11795;47.054;15.408;2023-08-31T02:55:57;96910;;;15.1;100.0
23253;BME280;11795;47.054;15.408;2023-08-31T02:57:57;96900;;;15.2;100.0
23253;BME280;11795;47.054;15.408;2023-08-31T02:59:57;96900;;;15.1;100.0
23253;BME280;11795;47.054;15.408;2023-08-31T03:01:57;96910;;;15.1;100.0
23253;BME280;11795;47.054;15.408;2023-08-31T03:03:57;96910;;;15.2;100.0
23253;BME280;11795;47.054;15.408;2023-08-31T03:05:57;96900;;;15.1;100.0
23253;BME280;11795;47.054;15.408;2023-08-31T03:07:57;96910;;;15.2;100.0
23253;BME280;11795;47.054;15.408;2023-08-31T03:09:57;96900;;;15.2;100.0
23253;BME280;11795;47.054;15.408;2023-08-31T03:11:57;96900;;;15.1;100.0
23253;BME280;11795;47.054;15.408;2023-08-31T03:13:57;96910;;;15.2;100.0
23253;BME280;11795;47.054;15.408;2023-08-31T03:15:57;96910;;;15.1;100.0
23253;BME280;11795;47.054;15.408;2023-08-31T03:17:57;96910;;;15.1;100.0
23253;BME280;11795;47.054;15.408;2023-08-31T03:19:57;96910;;;15.1;100.0
23253;BME280;11795;47.054;15.408;2023-08-31T03:21:57;96910;;;15.1;100.0
23253;BME280;11795;47.054;15.408;2023-08-31T03:23:57;96900;;;15.2;100.0
23253;BME280;11795;47.054;15.408;2023-08-31T03:25:57;96910;;;15.1;100.0
23253;BME280;11795;47.054;15.408;2023-08-31T03:27:57;96910;;;15.1;100.0
23253;BME280;11795;47.054;15.408;2023-08-31T03:29:57;96910;;;15.1;100.0
23253;BME280;11795;47.054;15.408;2023-08-31T03:31:57;96910;;;15.1;100.0
23253;BME280;11795;47.054;15.408;2023-08-31T03:33:57;96920;;;15.2;100.0
23253;BME280;11795;47.054;15.408;2023-08-31T03:36:00;96920;;;15.1;100.0
23253;BME280;11795;47.054;15.408;2023-08-31T03:37:57;96920;;;15.2;100.0
23253;BME280;11795;47.054;15.408;2023-08-31T03:39:57;96920;;;15.1;100.0
23253;BME280;11795;47.054;15.408;2023-08-31T03:41:57;96920;;;15.1;100.0
23253;BME280;11795;47.054;15.408;2023-08-31T03:43:57;96920;;;15.2;100.0
23253;BME280;11795;47.054;15.408;2023-08-31T03:45:57;96930;;;15.1;100.0
23253;BME280;11795;47.054;15.408;2023-08-31T03:47:57;96930;;;15.1;100.0
23253;BME280;11795;47.054;15.408;2023-08-31T03:49:57;96930;;;15.1;100.0
23253;BME280;11795;47.054;15.408;2023-08-31T03:51:57;96930;;;15.0;100.0
23253;BME280;11795;47.054;15.408;2023-08-31T03:53:57;96930;;;15.1;100.0
23253;BME280;11795;47.054;15.408;2023-08-31T03:55:57;96930;;;15.0;100.0
23253;BME280;11795;47.054;15.408;2023-08-31T03:57:58;96930;;;15.0;100.0
23253;BME280;11795;47.054;15.408;2023-08-31T03:59:57;96930;;;15.0;100.0
23253;BME280;11795;47.054;15.408;2023-08-31T04:01:57;96930;;;15.0;100.0
23253;BME280;11795;47.054;15.408;2023-08-31T04:03:57;96930;;;15.1;100.0
23253;BME280;11795;47.054;15.408;2023-08-31T04:05:57;96930;;;15.0;100.0
23253;BME280;11795;47.054;15.408;2023-08-31T04:07:57;96930;;;15.0;100.0
23253;BME280;11795;47.054;15.408;2023-08-31T04:09:57;96930;;;15.0;100.0
23253;BME280;11795;47.054;15.408;2023-08-31T04:11:57;96930;;;15.0;100.0
23253;BME280;11795;47.054;15.408;2023-08-31T04:13:57;96930;;;15.1;100.0
23253;BME280;11795;47.054;15.408;2023-08-31T04:15:57;96930;;;15.0;100.0
23253;BME280;11795;47.054;15.408;2023-08-31T04:17:57;96940;;;15.0;100.0
23253;BME280;11795;47.054;15.408;2023-08-31T04:19:57;96940;;;15.0;100.0
23253;BME280;11795;47.054;15.408;2023-08-31T04:21:57;96940;;;14.9;100.0
23253;BME280;11795;47.054;15.408;2023-08-31T04:24:00;96940;;;15.1;100.0
23253;BME280;11795;47.054;15.408;2023-08-31T04:26:10;96950;;;14.9;100.0
23253;BME280;11795;47.054;15.408;2023-08-31T04:27:57;96950;;;14.9;100.0
23253;BME280;11795;47.054;15.408;2023-08-31T04:29:58;96950;;;15.0;100.0
23253;BME280;11795;47.054;15.408;2023-08-31T04:33:57;96950;;;15.1;100.0
23253;BME280;11795;47.054;15.408;2023-08-31T04:35:57;96950;;;14.9;100.0
23253;BME280;11795;47.054;15.408;2023-08-31T04:37:57;96950;;;14.9;100.0
23253;BME280;11795;47.054;15.408;2023-08-31T04:39:58;96950;;;15.0;100.0
23253;BME280;11795;47.054;15.408;2023-08-31T04:41:57;96960;;;14.9;100.0
23253;BME280;11795;47.054;15.408;2023-08-31T04:43:57;96960;;;15.1;100.0
23253;BME280;11795;47.054;15.408;2023-08-31T04:45:57;96960;;;14.9;100.0
23253;BME280;11795;47.054;15.408;2023-08-31T04:47:57;96960;;;14.9;100.0
23253;BME280;11795;47.054;15.408;2023-08-31T04:49:59;96960;;;15.1;100.0
23253;BME280;11795;47.054;15.408;2023-08-31T04:51:57;96960;;;15.0;100.0
23253;BME280;11795;47.054;15.408;2023-08-31T04:53:57;96970;;;15.2;100.0
23253;BME280;11795;47.054;15.408;2023-08-31T04:55:57;96970;;;15.1;100.0
23253;BME280;11795;47.054;15.408;2023-08-31T04:57:58;96970;;;15.1;100.0
23253;BME280;11795;47.054;15.408;2023-08-31T04:59:57;96980;;;15.2;100.0
23253;BME280;11795;47.054;15.408;2023-08-31T05:01:57;96980;;;15.1;100.0
23253;BME280;11795;47.054;15.408;2023-08-31T05:03:58;96980;;;15.3;100.0
23253;BME280;11795;47.054;15.408;2023-08-31T05:05:57;96980;;;15.2;100.0
23253;BME280;11795;47.054;15.408;2023-08-31T05:07:59;96980;;;15.1;100.0
23253;BME280;11795;47.054;15.408;2023-08-31T05:09:57;96980;;;15.3;100.0
23253;BME280;11795;47.054;15.408;2023-08-31T05:11:57;96990;;;15.2;100.0
23253;BME280;11795;47.054;15.408;2023-08-31T05:13:57;96990;;;15.4;100.0
23253;BME280;11795;47.054;15.408;2023-08-31T05:15:57;96990;;;15.3;100.0
23253;BME280;11795;47.054;15.408;2023-08-31T05:17:57;96990;;;15.2;100.0
23253;BME280;11795;47.054;15.408;2023-08-31T05:19:57;97000;;;15.4;100.0
23253;BME280;11795;47.054;15.408;2023-08-31T05:21:57;97000;;;15.3;100.0
23253;BME280;11795;47.054;15.408;2023-08-31T05:23:57;97000;;;15.4;100.0
23253;BME280;11795;47.054;15.408;2023-08-31T05:25:57;97010;;;15.3;100.0
23253;BME280;11795;47.054;15.408;2023-08-31T05:27:57;97010;;;15.3;100.0
23253;BME280;11795;47.054;15.408;2023-08-31T05:29:57;97010;;;15.5;100.0
23253;BME280;11795;47.054;15.408;2023-08-31T05:31:57;97010;;;15.5;100.0
23253;BME280;11795;47.054;15.408;2023-08-31T05:33:57;97010;;;15.8;100.0
23253;BME280;11795;47.054;15.408;2023-08-31T05:35:57;97020;;;15.8;100.0
23253;BME280;11795;47.054;15.408;2023-08-31T05:37:57;97020;;;15.9;100.0
23253;BME280;11795;47.054;15.408;2023-08-31T05:39:57;97020;;;16.1;100.0
23253;BME280;11795;47.054;15.408;2023-08-31T05:41:57;97020;;;16.2;100.0
23253;BME280;11795;47.054;15.408;2023-08-31T05:43:57;97020;;;16.4;100.0
23253;BME280;11795;47.054;15.408;2023-08-31T05:45:57;97020;;;16.4;100.0
23253;BME280;11795;47.054;15.408;2023-08-31T05:47:57;97020;;;16.5;100.0
23253;BME280;11795;47.054;15.408;2023-08-31T05:49:57;97020;;;16.8;100.0
23253;BME280;11795;47.054;15.408;2023-08-31T05:51:57;97020;;;16.8;100.0
23253;BME280;11795;47.054;15.408;2023-08-31T05:53:57;97020;;;17.1;100.0
23253;BME280;11795;47.054;15.408;2023-08-31T05:56:04;97020;;;17.1;100.0
23253;BME280;11795;47.054;15.408;2023-08-31T05:57:57;97030;;;17.2;99.3
23253;BME280;11795;47.054;15.408;2023-08-31T05:59:57;97030;;;17.4;97.6
23253;BME280;11795;47.054;15.408;2023-08-31T06:01:57;97020;;;17.5;96.1
23253;BME280;11795;47.054;15.408;2023-08-31T06:03:57;97020;;;17.6;93.7
23253;BME280;11795;47.054;15.408;2023-08-31T06:05:58;97020;;;17.6;95.5
23253;BME280;11795;47.054;15.408;2023-08-31T06:07:57;97020;;;17.8;95.4
23253;BME280;11795;47.054;15.408;2023-08-31T06:09:57;97030;;;18.1;93.9
23253;BME280;11795;47.054;15.408;2023-08-31T06:11:57;97030;;;18.1;92.2
23253;BME280;11795;47.054;15.408;2023-08-31T06:13:57;97030;;;18.4;91.8
23253;BME280;11795;47.054;15.408;2023-08-31T06:15:58;97040;;;18.5;92.2
23253;BME280;11795;47.054;15.408;2023-08-31T06:17:57;97040;;;18.5;90.1
23253;BME280;11795;47.054;15.408;2023-08-31T06:19:57;97050;;;18.7;89.7
23253;BME280;11795;47.054;15.408;2023-08-31T06:21:57;97040;;;18.8;89.8
23253;BME280;11795;47.054;15.408;2023-08-31T06:23:57;97040;;;18.9;87.4
23253;BME280;11795;47.054;15.408;2023-08-31T06:25:57;97040;;;18.9;87.5
23253;BME280;11795;47.054;15.408;2023-08-31T06:27:57;97040;;;18.8;86.9
23253;BME280;11795;47.054;15.408;2023-08-31T06:29:57;97050;;;18.9;84.7
23253;BME280;11795;47.054;15.408;2023-08-31T06:31:57;97050;;;18.8;84.1
23253;BME280;11795;47.054;15.408;2023-08-31T06:33:57;97050;;;18.8;84.4
23253;BME280;11795;47.054;15.408;2023-08-31T06:35:57;97050;;;18.7;85.6
23253;BME280;11795;47.054;15.408;2023-08-31T06:37:57;97050;;;18.7;87.8
23253;BME280;11795;47.054;15.408;2023-08-31T06:39:57;97050;;;18.9;86.9
23253;BME280;11795;47.054;15.408;2023-08-31T06:41:57;97060;;;18.8;86.9
23253;BME280;11795;47.054;15.408;2023-08-31T06:43:57;97060;;;19.0;86.6
23253;BME280;11795;47.054;15.408;2023-08-31T06:45:57;97060;;;19.0;87.5
23253;BME280;11795;47.054;15.408;2023-08-31T06:47:57;97060;;;19.0;82.8
23253;BME280;11795;47.054;15.408;2023-08-31T06:49:57;97060;;;18.9;83.9
23253;BME280;11795;47.054;15.408;2023-08-31T06:51:57;97060;;;18.9;86.0
23253;BME280;11795;47.054;15.408;2023-08-31T06:54:02;97060;;;19.1;85.0
23253;BME280;11795;47.054;15.408;2023-08-31T06:55:57;97060;;;19.2;84.5
23253;BME280;11795;47.054;15.408;2023-08-31T06:57:57;97060;;;19.2;84.0
23253;BME280;11795;47.054;15.408;2023-08-31T06:59:57;97060;;;19.5;83.7
23253;BME280;11795;47.054;15.408;2023-08-31T07:01:57;97060;;;19.6;83.6
23253;BME280;11795;47.054;15.408;2023-08-31T07:03:57;97070;;;19.9;82.4
23253;BME280;11795;47.054;15.408;2023-08-31T07:05:57;97070;;;19.9;81.9
23253;BME280;11795;47.054;15.408;2023-08-31T07:07:57;97070;;;19.9;80.6
23253;BME280;11795;47.054;15.408;2023-08-31T07:09:57;97070;;;20.1;79.1
23253;BME280;11795;47.054;15.408;2023-08-31T07:11:58;97070;;;20.0;78.9
23253;BME280;11795;47.054;15.408;2023-08-31T07:13:57;97070;;;20.1;78.7
23253;BME280;11795;47.054;15.408;2023-08-31T07:15:57;97070;;;20.1;78.9
23253;BME280;11795;47.054;15.408;2023-08-31T07:17:57;97070;;;20.0;77.0
23253;BME280;11795;47.054;15.408;2023-08-31T07:19:57;97070;;;20.1;75.8
23253;BME280;11795;47.054;15.408;2023-08-31T07:21:58;97060;;;20.0;77.3
23253;BME280;11795;47.054;15.408;2023-08-31T07:23:57;97070;;;20.3;77.9
23253;BME280;11795;47.054;15.408;2023-08-31T07:25:58;97060;;;20.3;77.5
23253;BME280;11795;47.054;15.408;2023-08-31T07:27:57;97060;;;20.4;78.1
23253;BME280;11795;47.054;15.408;2023-08-31T07:29:57;97060;;;20.3;75.4
23253;BME280;11795;47.054;15.408;2023-08-31T07:31:57;97070;;;20.2;77.5
23253;BME280;11795;47.054;15.408;2023-08-31T07:33:57;97070;;;20.5;77.0
23253;BME280;11795;47.054;15.408;2023-08-31T07:35:57;97060;;;20.5;76.8
23253;BME280;11795;47.054;15.408;2023-08-31T07:37:57;97070;;;20.5;77.1
23253;BME280;11795;47.054;15.408;2023-08-31T07:39:57;97070;;;20.9;73.7
23253;BME280;11795;47.054;15.408;2023-08-31T07:41:57;97070;;;20.6;75.1
23253;BME280;11795;47.054;15.408;2023-08-31T07:43:57;97080;;;20.6;75.8
23253;BME280;11795;47.054;15.408;2023-08-31T07:45:57;97080;;;20.1;75.6
23253;BME280;11795;47.054;15.408;2023-08-31T07:47:57;97090;;;20.0;77.7
23253;BME280;11795;47.054;15.408;2023-08-31T07:49:57;97090;;;20.4;77.0
23253;BME280;11795;47.054;15.408;2023-08-31T07:51:57;97090;;;20.3;75.2
23253;BME280;11795;47.054;15.408;2023-08-31T07:53:57;97090;;;20.5;76.6
23253;BME280;11795;47.054;15.408;2023-08-31T07:55:57;97090;;;20.5;75.5
23253;BME280;11795;47.054;15.408;2023-08-31T07:57:57;97090;;;20.3;77.1
23253;BME280;11795;47.054;15.408;2023-08-31T07:59:57;97090;;;20.5;76.4
23253;BME280;11795;47.054;15.408;2023-08-31T08:01:57;97090;;;20.6;76.5
23253;BME280;11795;47.054;15.408;2023-08-31T08:03:57;97090;;;20.8;75.7
23253;BME280;11795;47.054;15.408;2023-08-31T08:05:57;97100;;;21.0;75.6
23253;BME280;11795;47.054;15.408;2023-08-31T08:07:57;97090;;;21.2;74.6
23253;BME280;11795;47.054;15.408;2023-08-31T08:09:57;97100;;;21.5;74.3
23253;BME280;11795;47.054;15.408;2023-08-31T08:11:57;97100;;;21.6;72.4
23253;BME280;11795;47.054;15.408;2023-08-31T08:13:57;97100;;;21.9;71.7
23253;BME280;11795;47.054;15.408;2023-08-31T08:15:57;97100;;;22.1;69.6
23253;BME280;11795;47.054;15.408;2023-08-31T08:17:57;97100;;;22.1;66.2
23253;BME280;11795;47.054;15.408;2023-08-31T08:19:57;97110;;;22.4;65.1
23253;BME280;11795;47.054;15.408;2023-08-31T08:21:57;97110;;;22.3;66.6
23253;BME280;11795;47.054;15.408;2023-08-31T08:23:57;97110;;;22.5;65.5
23253;BME280;11795;47.054;15.408;2023-08-31T08:25:59;97110;;;22.5;66.6
23253;BME280;11795;47.054;15.408;2023-08-31T08:27:57;97120;;;22.6;64.6
23253;BME280;11795;47.054;15.408;2023-08-31T08:29:57;97120;;;22.9;63.1
23253;BME280;11795;47.054;15.408;2023-08-31T08:31:57;97120;;;22.9;62.5
23253;BME280;11795;47.054;15.408;2023-08-31T08:33:57;97120;;;23.2;63.1
23253;BME280;11795;47.054;15.408;2023-08-31T08:35:57;97120;;;23.4;61.8
23253;BME280;11795;47.054;15.408;2023-08-31T08:37:57;97120;;;23.2;59.9
23253;BME280;11795;47.054;15.408;2023-08-31T08:39:57;97120;;;23.4;59.9
23253;BME280;11795;47.054;15.408;2023-08-31T08:41:58;97120;;;23.2;56.2
23253;BME280;11795;47.054;15.408;2023-08-31T08:44:01;97120;;;23.1;54.1
23253;BME280;11795;47.054;15.408;2023-08-31T08:45:59;97120;;;23.2;52.4
23253;BME280;11795;47.054;15.408;2023-08-31T08:47:57;97120;;;23.3;51.5
23253;BME280;11795;47.054;15.408;2023-08-31T08:49:57;97120;;;23.3;52.2
23253;BME280;11795;47.054;15.408;2023-08-31T08:51:57;97130;;;23.1;56.0
23253;BME280;11795;47.054;15.408;2023-08-31T08:53:59;97130;;;23.2;55.0
23253;BME280;11795;47.054;15.408;2023-08-31T08:55:58;97130;;;23.3;54.2
23253;BME280;11795;47.054;15.408;2023-08-31T08:57:58;97130;;;23.2;56.2
23253;BME280;11795;47.054;15.408;2023-08-31T08:59:57;97130;;;23.5;56.1
23253;BME280;11795;47.054;15.408;2023-08-31T09:01:57;97130;;;23.5;50.0
23253;BME280;11795;47.054;15.408;2023-08-31T09:03:57;97130;;;23.3;50.4
23253;BME280;11795;47.054;15.408;2023-08-31T09:05:59;97130;;;23.3;52.8
23253;BME280;11795;47.054;15.408;2023-08-31T09:08:00;97130;;;23.5;55.0
23253;BME280;11795;47.054;15.408;2023-08-31T09:09:59;97130;;;23.2;57.1
23253;BME280;11795;47.054;15.408;2023-08-31T09:12:06;97140;;;23.0;56.8
23253;BME280;11795;47.054;15.408;2023-08-31T09:13:57;97140;;;22.4;57.6
23253;BME280;11795;47.054;15.408;2023-08-31T09:15:57;97140;;;22.7;56.7
23253;BME280;11795;47.054;15.408;2023-08-31T09:17:57;97140;;;22.7;56.5
23253;BME280;11795;47.054;15.408;2023-08-31T09:19:59;97140;;;23.0;56.1
23253;BME280;11795;47.054;15.408;2023-08-31T09:21:57;97140;;;23.0;56.0
23253;BME280;11795;47.054;15.408;2023-08-31T09:23:57;97140;;;23.2;51.0
23253;BME280;11795;47.054;15.408;2023-08-31T09:25:57;97140;;;23.0;51.7
23253;BME280;11795;47.054;15.408;2023-08-31T09:27:57;97150;;;22.9;49.8
23253;BME280;11795;47.054;15.408;2023-08-31T09:29:57;97140;;;23.0;51.5
23253;BME280;11795;47.054;15.408;2023-08-31T09:31:57;97150;;;22.8;52.3
23253;BME280;11795;47.054;15.408;2023-08-31T09:33:57;97150;;;22.8;53.1
23253;BME280;11795;47.054;15.408;2023-08-31T09:35:59;97150;;;22.9;53.3
23253;BME280;11795;47.054;15.408;2023-08-31T09:37:57;97150;;;23.0;55.1
23253;BME280;11795;47.054;15.408;2023-08-31T09:40:01;97150;;;23.6;54.6
23253;BME280;11795;47.054;15.408;2023-08-31T09:41:59;97150;;;23.8;50.6
23253;BME280;11795;47.054;15.408;2023-08-31T09:44:14;97150;;;23.9;51.2
23253;BME280;11795;47.054;15.408;2023-08-31T09:45:58;97150;;;24.1;51.0
23253;BME280;11795;47.054;15.408;2023-08-31T09:47:58;97150;;;24.1;50.2
23253;BME280;11795;47.054;15.408;2023-08-31T09:49:58;97150;;;24.2;49.7
23253;BME280;11795;47.054;15.408;2023-08-31T09:52:00;97150;;;24.4;49.5
23253;BME280;11795;47.054;15.408;2023-08-31T09:53:57;97150;;;24.2;48.7
23253;BME280;11795;47.054;15.408;2023-08-31T09:55:57;97150;;;24.3;50.3
23253;BME280;11795;47.054;15.408;2023-08-31T09:57:58;97150;;;24.4;50.0
23253;BME280;11795;47.054;15.408;2023-08-31T09:59:58;97150;;;24.5;48.4
23253;BME280;11795;47.054;15.408;2023-08-31T10:01:57;97150;;;24.2;48.0
23253;BME280;11795;47.054;15.408;2023-08-31T10:03:59;97160;;;24.0;47.9
23253;BME280;11795;47.054;15.408;2023-08-31T10:05:58;97160;;;23.9;48.5
23253;BME280;11795;47.054;15.408;2023-08-31T10:07:57;97160;;;23.5;49.4
23253;BME280;11795;47.054;15.408;2023-08-31T10:09:57;97150;;;23.3;50.7
23253;BME280;11795;47.054;15.408;2023-08-31T10:11:57;97160;;;23.0;49.5
23253;BME280;11795;47.054;15.408;2023-08-31T10:13:58;97150;;;23.0;48.8
23253;BME280;11795;47.054;15.408;2023-08-31T10:15:58;97160;;;23.1;49.3
23253;BME280;11795;47.054;15.408;2023-08-31T10:17:58;97150;;;23.1;50.1
23253;BME280;11795;47.054;15.408;2023-08-31T10:19:57;97150;;;23.2;51.1
23253;BME280;11795;47.054;15.408;2023-08-31T10:22:00;97150;;;23.3;51.6
23253;BME280;11795;47.054;15.408;2023-08-31T10:23:57;97160;;;23.4;50.8
23253;BME280;11795;47.054;15.408;2023-08-31T10:26:01;97150;;;23.7;49.2
23253;BME280;11795;47.054;15.408;2023-08-31T10:27:57;97150;;;23.6;48.7
23253;BME280;11795;47.054;15.408;2023-08-31T10:29:57;97160;;;23.5;48.1
23253;BME280;11795;47.054;15.408;2023-08-31T10:32:00;97150;;;23.5;49.3
23253;BME280;11795;47.054;15.408;2023-08-31T10:33:59;97160;;;23.7;50.4
23253;BME280;11795;47.054;15.408;2023-08-31T10:35:58;97160;;;23.8;48.9
23253;BME280;11795;47.054;15.408;2023-08-31T10:38:13;97160;;;23.4;47.5
23253;BME280;11795;47.054;15.408;2023-08-31T10:40:06;97160;;;23.6;48.3
23253;BME280;11795;47.054;15.408;2023-08-31T10:42:00;97160;;;23.8;48.4
23253;BME280;11795;47.054;15.408;2023-08-31T10:43:58;97160;;;23.7;45.7
23253;BME280;11795;47.054;15.408;2023-08-31T10:45:58;97160;;;22.9;47.5
23253;BME280;11795;47.054;15.408;2023-08-31T10:48:00;97160;;;22.7;46.6
23253;BME280;11795;47.054;15.408;2023-08-31T10:50:19;97150;;;23.2;48.2
23253;BME280;11795;47.054;15.408;2023-08-31T10:52:15;97150;;;23.7;49.5
23253;BME280;11795;47.054;15.408;2023-08-31T10:54:06;97150;;;24.0;46.0
23253;BME280;11795;47.054;15.408;2023-08-31T10:55:57;97150;;;24.4;45.5
23253;BME280;11795;47.054;15.408;2023-08-31T10:57:58;97140;;;24.5;47.0
23253;BME280;11795;47.054;15.408;2023-08-31T10:59:57;97140;;;24.7;45.9
23253;BME280;11795;47.054;15.408;2023-08-31T11:01:58;97140;;;24.8;45.7
23253;BME280;11795;47.054;15.408;2023-08-31T11:03:57;97140;;;24.8;46.2
23253;BME280;11795;47.054;15.408;2023-08-31T11:05:57;97140;;;24.5;44.4
23253;BME280;11795;47.054;15.408;2023-08-31T11:07:57;97140;;;24.0;44.7
23253;BME280;11795;47.054;15.408;2023-08-31T11:10:09;97140;;;24.3;44.8